KMXF

Maxwell AFB Airport

Montgomery, Alabama, USA
METAR KMXF 170156Z AUTO 00000KT 10SM CLR 05/03 A3026 RMK AO2 SLP251 T00490026
Observed Flight Rules
Dec-17 @ 01:56 UTC (20 minutes ago) Visual Flight Rules
Wind Visibility Clouds
Calm 10 miles
  • Clear skies
Temperatures Readings
Current 5°C / 41°F
Dewpoint 3°C / 37°F
Humidity 87%
Altimeter 30.26" Hg
Pressure 1025.1 hPa
Elevation 51
METAR KMXF 170156Z AUTO 00000KT 10SM CLR 05/03 A3026 RMK AO2 SLP251 T00490026
Observed Flight Rules
Dec-17 @ 01:56 UTC
(20 minutes ago)
VFR
Wind Visibility
Calm 10 miles
Clouds
  • Clear skies
Temperature Dewpoint
5°C / 41°F 3°C / 37°F
Humidity Altimeter Pressure
87% 30.26" Hg 1025.1 hPa